Time;durP1;ratioP1;P1;durP2;ratioP2;P2;SDS_P1;SDS_P2;PMS_P1;PMS_P2;Temp;Humidity;BMP_temperature;BMP_pressure;BME280_temperature;BME280_humidity;BME280_pressure;Samples;Min_cycle;Max_cycle;Signal;HPM_P1;HPM_P2
2023/08/17 00:01:13;;;;;;;7.88;3.63;;;;;;;17.69;85.96;102192.53;6105752;19;20046;-74
2023/08/17 00:03:18;;;;;;;6.57;3.22;;;;;;;17.74;85.49;102203.78;6106972;19;20032;-75
2023/08/17 00:05:24;;;;;;;11.00;4.68;;;;;;;17.74;85.54;102193.16;6102570;19;20019;-73
2023/08/17 00:07:29;;;;;;;8.38;3.55;;;;;;;17.70;85.31;102204.91;6103728;19;20018;-75
2023/08/17 00:09:34;;;;;;;6.88;3.55;;;;;;;17.65;85.23;102197.13;6103794;19;20019;-76
2023/08/17 00:11:42;;;;;;;7.55;3.70;;;;;;;17.69;84.98;102198.72;6102700;19;20045;-76
2023/08/17 00:13:45;;;;;;;7.72;3.60;;;;;;;17.68;84.79;102198.78;6097400;19;20018;-77
2023/08/17 00:15:50;;;;;;;10.88;3.83;;;;;;;17.67;84.82;102202.41;6102497;19;20003;-76
2023/08/17 00:17:52;;;;;;;5.80;2.97;;;;;;;17.67;84.57;102199.72;6102819;19;20010;-75
2023/08/17 00:19:58;;;;;;;8.65;3.55;;;;;;;17.68;84.89;102199.63;6101991;19;20010;-77
2023/08/17 00:22:03;;;;;;;7.70;3.42;;;;;;;17.64;84.95;102199.84;6100332;19;20010;-76
2023/08/17 00:24:08;;;;;;;9.52;3.47;;;;;;;17.68;85.04;102201.44;6101122;19;20416;-77
2023/08/17 00:26:14;;;;;;;12.25;3.50;;;;;;;17.64;85.07;102192.78;6104814;19;20018;-76
2023/08/17 00:28:21;;;;;;;10.18;3.40;;;;;;;17.63;85.73;102192.84;6099401;19;20086;-75
2023/08/17 00:30:29;;;;;;;9.15;3.25;;;;;;;17.59;86.06;102199.22;6090503;19;20524;-75
2023/08/17 00:32:34;;;;;;;8.70;3.17;;;;;;;17.47;86.70;102193.56;6099236;19;20043;-75
2023/08/17 00:34:39;;;;;;;6.55;3.30;;;;;;;17.49;86.70;102190.84;6101180;19;20418;-75
2023/08/17 00:36:41;;;;;;;8.02;3.55;;;;;;;17.47;87.16;102192.72;6101742;19;20030;-76
2023/08/17 00:38:46;;;;;;;6.25;3.08;;;;;;;17.55;86.55;102194.06;6102350;19;20006;-76
2023/08/17 00:40:51;;;;;;;7.68;3.28;;;;;;;17.48;86.52;102192.66;6102459;19;20010;-77
2023/08/17 00:42:57;;;;;;;5.93;3.00;;;;;;;17.50;86.64;102193.41;6100873;19;20506;-75
2023/08/17 00:45:05;;;;;;;6.78;3.13;;;;;;;17.45;86.89;102195.44;6099655;19;20018;-75
2023/08/17 00:47:08;;;;;;;8.18;3.55;;;;;;;17.43;86.46;102196.44;6086963;19;20031;-75
2023/08/17 00:49:13;;;;;;;7.30;3.20;;;;;;;17.40;86.89;102196.59;6102329;19;20010;-75
2023/08/17 00:51:20;;;;;;;5.07;2.55;;;;;;;17.38;87.14;102194.03;6099923;19;20030;-75
2023/08/17 00:53:27;;;;;;;8.13;3.20;;;;;;;17.39;86.70;102198.38;6097437;19;20700;-75
2023/08/17 00:55:33;;;;;;;7.45;2.85;;;;;;;17.42;86.84;102195.56;6102166;19;20728;-75
2023/08/17 00:57:39;;;;;;;5.50;2.83;;;;;;;17.37;86.57;102197.59;6101476;19;20014;-75
2023/08/17 00:59:44;;;;;;;8.27;3.17;;;;;;;17.36;86.80;102195.88;6102665;19;20006;-75
2023/08/17 01:02:11;;;;;;;4.72;2.25;;;;;;;17.35;86.76;102196.78;6100225;19;20038;-75
2023/08/17 01:04:16;;;;;;;4.68;2.60;;;;;;;17.34;85.75;102201.25;6102196;19;20429;-75
2023/08/17 01:06:21;;;;;;;5.28;2.45;;;;;;;17.33;85.82;102202.19;6098310;19;20030;-75
2023/08/17 01:08:28;;;;;;;4.72;2.38;;;;;;;17.25;85.76;102201.69;6099927;19;20011;-76
2023/08/17 01:10:43;;;;;;;7.38;2.65;;;;;;;17.32;85.36;102200.50;6102440;19;20035;-75
2023/08/17 01:12:56;;;;;;;6.25;2.88;;;;;;;17.32;85.40;102194.28;6099616;19;20708;-75
2023/08/17 01:15:11;;;;;;;3.72;2.42;;;;;;;17.27;84.53;102196.28;6097744;19;20420;-75
2023/08/17 01:17:24;;;;;;;5.75;2.60;;;;;;;17.27;84.49;102196.28;6100283;19;20371;-75
2023/08/17 01:19:30;;;;;;;4.97;2.53;;;;;;;17.27;84.31;102186.56;6099657;19;20015;-73
2023/08/17 01:21:44;;;;;;;4.80;2.30;;;;;;;17.31;84.12;102196.09;6101510;19;20015;-73
2023/08/17 01:23:59;;;;;;;4.97;2.20;;;;;;;17.28;84.01;102192.72;6097038;19;20019;-74
2023/08/17 01:26:05;;;;;;;5.70;2.90;;;;;;;17.32;83.85;102194.28;6095215;19;20074;-75
2023/08/17 01:28:10;;;;;;;6.40;2.60;;;;;;;17.31;83.53;102197.88;6101871;19;20582;-75
2023/08/17 01:30:18;;;;;;;5.65;2.63;;;;;;;17.22;83.82;102188.56;6097964;19;20339;-75
2023/08/17 01:32:29;;;;;;;5.35;3.13;;;;;;;17.26;83.48;102190.13;6094647;19;20011;-75
2023/08/17 01:34:38;;;;;;;5.97;2.30;;;;;;;17.25;83.67;102190.22;6100818;19;20426;-75
2023/08/17 01:36:51;;;;;;;3.20;2.17;;;;;;;17.25;83.18;102182.25;6101053;19;20011;-74
2023/08/17 01:38:59;;;;;;;4.30;2.50;;;;;;;17.21;83.48;102181.50;6101561;19;20006;-73
2023/08/17 01:41:04;;;;;;;2.85;1.92;;;;;;;17.17;83.35;102179.94;6086167;19;20024;-75
2023/08/17 01:43:10;;;;;;;3.78;2.22;;;;;;;17.15;83.37;102181.81;6098053;19;20012;-75
2023/08/17 01:45:15;;;;;;;4.93;2.22;;;;;;;17.16;82.96;102188.84;6097785;19;20018;-75
2023/08/17 01:47:21;;;;;;;3.53;2.00;;;;;;;17.10;82.83;102191.78;6096603;19;20038;-75
2023/08/17 01:49:29;;;;;;;6.15;2.30;;;;;;;17.09;82.57;102182.09;6097777;19;20451;-75
2023/08/17 01:51:35;;;;;;;4.68;2.10;;;;;;;17.09;82.82;102180.31;6096952;19;20638;-75
2023/08/17 01:53:40;;;;;;;4.82;2.50;;;;;;;17.04;82.86;102177.00;6088622;19;20042;-75
2023/08/17 01:55:45;;;;;;;4.25;2.30;;;;;;;17.02;83.06;102178.84;6096958;19;20572;-75
2023/08/17 01:57:50;;;;;;;3.72;2.25;;;;;;;17.03;83.10;102182.38;6098334;19;20415;-75
2023/08/17 01:59:55;;;;;;;6.25;2.53;;;;;;;16.99;83.45;102179.00;6098785;19;20032;-75
2023/08/17 02:01:57;;;;;;;4.63;2.10;;;;;;;17.01;83.25;102184.22;6099463;19;20052;-75
2023/08/17 02:04:02;;;;;;;5.00;2.47;;;;;;;17.02;83.07;102184.16;6098011;19;20006;-76
2023/08/17 02:06:07;;;;;;;4.15;2.17;;;;;;;17.03;82.64;102183.22;6098260;19;20002;-75
2023/08/17 02:08:12;;;;;;;5.35;2.33;;;;;;;16.95;82.84;102189.84;6099359;19;20002;-75
2023/08/17 02:10:17;;;;;;;3.65;2.10;;;;;;;16.92;83.09;102176.69;6098616;19;20295;-76
2023/08/17 02:12:24;;;;;;;3.30;2.13;;;;;;;16.94;82.96;102178.34;6100161;19;20007;-77
2023/08/17 02:14:29;;;;;;;8.10;2.30;;;;;;;16.86;83.36;102170.75;6093044;19;20014;-76
2023/08/17 02:16:34;;;;;;;3.63;2.50;;;;;;;16.79;84.04;102176.38;6095903;19;20006;-75
2023/08/17 02:18:39;;;;;;;2.95;2.03;;;;;;;16.76;84.12;102181.81;6098738;19;20027;-77
2023/08/17 02:20:47;;;;;;;4.20;2.97;;;;;;;16.72;84.16;102181.09;6097115;19;20104;-74
2023/08/17 02:22:54;;;;;;;4.40;2.28;;;;;;;16.71;83.83;102182.00;6094208;19;20011;-77
2023/08/17 02:24:59;;;;;;;5.20;2.20;;;;;;;16.73;84.02;102184.59;6099632;19;20010;-75
2023/08/17 02:27:05;;;;;;;3.67;2.10;;;;;;;16.69;84.27;102183.88;6094557;19;20498;-74
2023/08/17 02:29:12;;;;;;;3.28;2.10;;;;;;;16.65;84.53;102185.81;6096412;19;20019;-75
2023/08/17 02:31:17;;;;;;;6.18;2.55;;;;;;;16.62;84.19;102185.94;6088250;19;20007;-75
2023/08/17 02:33:25;;;;;;;3.47;2.20;;;;;;;16.63;84.14;102181.50;6094102;19;20017;-73
2023/08/17 02:35:30;;;;;;;5.10;2.65;;;;;;;16.58;83.99;102184.34;6095603;19;20011;-73
2023/08/17 02:37:35;;;;;;;4.40;2.00;;;;;;;16.57;83.97;102179.97;6093722;19;20070;-74
2023/08/17 02:39:44;;;;;;;6.20;2.97;;;;;;;16.50;83.84;102178.53;6098525;19;20025;-75
2023/08/17 02:41:51;;;;;;;3.65;2.20;;;;;;;16.48;84.33;102179.50;6092814;19;20007;-75
2023/08/17 02:43:58;;;;;;;4.40;2.38;;;;;;;16.45;84.56;102169.91;6099768;19;20117;-73
2023/08/17 02:46:07;;;;;;;3.28;2.25;;;;;;;16.48;83.88;102168.91;6103888;19;20522;-75
2023/08/17 02:48:09;;;;;;;6.68;2.53;;;;;;;16.46;83.83;102174.28;6102266;19;20519;-73
2023/08/17 02:50:14;;;;;;;4.43;2.25;;;;;;;16.47;83.74;102165.38;6093784;19;20074;-74
2023/08/17 02:52:19;;;;;;;7.85;2.50;;;;;;;16.44;83.93;102168.19;6099300;19;21087;-74
2023/08/17 02:54:27;;;;;;;4.18;2.40;;;;;;;16.45;83.76;102169.91;6102188;19;20054;-74
2023/08/17 02:56:32;;;;;;;5.05;2.63;;;;;;;16.48;83.72;102168.91;6103812;19;20007;-74
2023/08/17 02:58:38;;;;;;;5.25;2.58;;;;;;;16.44;84.01;102162.88;6103402;19;20007;-74
2023/08/17 03:00:43;;;;;;;6.22;2.67;;;;;;;16.48;84.14;102161.78;6102960;19;20019;-75
2023/08/17 03:02:52;;;;;;;6.35;3.00;;;;;;;16.48;84.42;102164.44;6105612;19;20046;-75
2023/08/17 03:04:58;;;;;;;3.90;2.17;;;;;;;16.51;84.91;102166.09;6106033;19;20006;-72
2023/08/17 03:07:05;;;;;;;5.90;2.58;;;;;;;16.57;84.91;102171.16;6093575;19;20010;-72
2023/08/17 03:09:10;;;;;;;5.97;2.85;;;;;;;16.52;85.15;102168.72;6105954;19;20010;-74
2023/08/17 03:11:15;;;;;;;9.52;3.03;;;;;;;16.55;85.57;102163.25;6105702;19;20245;-74
2023/08/17 03:13:20;;;;;;;10.00;3.13;;;;;;;16.52;85.70;102162.53;6098800;19;21374;-73
2023/08/17 03:15:25;;;;;;;7.10;2.55;;;;;;;16.56;85.89;102167.66;6101532;19;20110;-75
2023/08/17 03:17:30;;;;;;;5.28;2.75;;;;;;;16.55;86.37;102165.91;6100061;19;20021;-73
2023/08/17 03:19:40;;;;;;;6.00;3.08;;;;;;;16.52;86.42;102163.41;6100508;19;20023;-73
2023/08/17 03:21:45;;;;;;;4.78;2.40;;;;;;;16.54;86.78;102168.66;6104315;19;20674;-73
2023/08/17 03:23:51;;;;;;;9.15;2.97;;;;;;;16.57;86.45;102169.38;6097859;19;20007;-73
2023/08/17 03:25:57;;;;;;;9.65;3.10;;;;;;;16.49;86.99;102170.66;6101397;19;20084;-73
2023/08/17 03:27:59;;;;;;;5.07;2.25;;;;;;;16.52;87.31;102165.19;6101912;19;20035;-73
2023/08/17 03:30:05;;;;;;;4.13;2.28;;;;;;;16.50;87.01;102165.25;6102550;19;20727;-73
2023/08/17 03:32:10;;;;;;;6.70;2.90;;;;;;;16.52;86.89;102167.84;6099854;19;20003;-73
2023/08/17 03:34:15;;;;;;;9.57;3.08;;;;;;;16.46;87.30;102166.34;6097482;19;20097;-73
2023/08/17 03:36:20;;;;;;;4.63;2.60;;;;;;;16.47;87.41;102170.69;6101424;19;20349;-73
2023/08/17 03:38:25;;;;;;;4.55;2.10;;;;;;;16.46;87.58;102171.63;6102702;19;20056;-73
2023/08/17 03:40:30;;;;;;;5.60;2.83;;;;;;;16.42;87.96;102165.59;6102029;19;20010;-73
2023/08/17 03:42:35;;;;;;;7.53;2.95;;;;;;;16.51;87.56;102164.34;6099958;19;20006;-73
2023/08/17 03:44:40;;;;;;;6.10;2.40;;;;;;;16.43;88.04;102163.81;6101718;19;20018;-74
2023/08/17 03:46:46;;;;;;;4.13;2.33;;;;;;;16.41;88.32;102157.72;6103682;19;20006;-73
2023/08/17 03:48:51;;;;;;;4.45;2.88;;;;;;;16.45;88.33;102164.59;6100242;19;20019;-73
2023/08/17 03:50:57;;;;;;;4.93;2.03;;;;;;;16.41;88.53;102163.03;6094067;19;20433;-73
2023/08/17 03:53:05;;;;;;;5.78;2.47;;;;;;;16.39;88.83;102165.72;6098660;19;20036;-73
2023/08/17 03:55:11;;;;;;;5.18;2.78;;;;;;;16.37;88.98;102154.31;6103745;19;20021;-73
2023/08/17 03:57:16;;;;;;;3.88;2.10;;;;;;;16.36;89.08;102155.25;6103902;19;20010;-75
2023/08/17 03:59:21;;;;;;;5.10;2.38;;;;;;;16.39;89.38;102160.41;6096991;19;20034;-75
2023/08/17 04:01:26;;;;;;;8.95;3.50;;;;;;;16.38;89.42;102157.84;6102946;19;20043;-76
2023/08/17 04:03:31;;;;;;;3.40;2.15;;;;;;;16.40;89.54;102161.28;6103514;19;20647;-74
2023/08/17 04:05:36;;;;;;;6.82;2.72;;;;;;;16.41;89.33;102158.56;6102492;19;20007;-76
2023/08/17 04:07:41;;;;;;;5.38;2.67;;;;;;;16.36;89.74;102155.25;6098206;19;20753;-75
2023/08/17 04:09:51;;;;;;;7.30;2.78;;;;;;;16.35;89.43;102156.19;6101170;19;20525;-77
2023/08/17 04:11:58;;;;;;;4.88;2.50;;;;;;;16.41;89.65;102153.25;6101714;19;20338;-77
2023/08/17 04:14:02;;;;;;;4.85;2.70;;;;;;;16.43;89.35;102158.50;6104706;19;20023;-76
2023/08/17 04:16:07;;;;;;;3.97;2.20;;;;;;;16.44;89.45;102161.06;6104329;19;20468;-76
2023/08/17 04:18:13;;;;;;;4.65;2.22;;;;;;;16.48;89.35;102161.78;6101638;19;20015;-77
2023/08/17 04:20:18;;;;;;;4.80;2.45;;;;;;;16.49;89.21;102160.88;6102939;19;20010;-77
2023/08/17 04:22:23;;;;;;;6.40;2.50;;;;;;;16.50;88.98;102157.28;6101964;19;20495;-77
2023/08/17 04:24:28;;;;;;;5.43;2.40;;;;;;;16.53;89.05;102153.63;6103009;19;20003;-76
2023/08/17 04:26:36;;;;;;;6.93;2.83;;;;;;;16.52;88.79;102162.53;6098889;19;20007;-75
2023/08/17 04:28:41;;;;;;;8.48;2.90;;;;;;;16.50;88.82;102159.94;6098792;19;20511;-73
2023/08/17 04:30:49;;;;;;;4.05;2.75;;;;;;;16.53;88.80;102157.16;6099237;19;20002;-72
2023/08/17 04:32:55;;;;;;;9.45;3.45;;;;;;;16.55;88.45;102157.94;6100799;19;20488;-73
2023/08/17 04:35:00;;;;;;;6.20;2.60;;;;;;;16.53;88.91;102162.44;6101429;19;19999;-73
2023/08/17 04:37:05;;;;;;;6.57;2.78;;;;;;;16.46;89.07;102167.19;6101395;19;20024;-73
2023/08/17 04:39:10;;;;;;;7.32;2.50;;;;;;;16.50;89.28;102162.59;6102789;19;20010;-73
2023/08/17 04:41:16;;;;;;;7.03;2.58;;;;;;;16.52;89.22;102168.72;6100647;19;20450;-73
2023/08/17 04:43:24;;;;;;;4.90;2.08;;;;;;;16.56;89.20;102162.34;6093151;19;20042;-73
2023/08/17 04:45:26;;;;;;;5.20;2.50;;;;;;;16.58;89.18;102163.13;6099062;19;20003;-73
2023/08/17 04:47:31;;;;;;;8.40;2.50;;;;;;;16.60;89.01;102169.22;6102080;19;20487;-73
2023/08/17 04:49:36;;;;;;;5.43;2.58;;;;;;;16.63;89.27;102166.44;6100545;19;20010;-73
2023/08/17 04:51:41;;;;;;;6.53;2.53;;;;;;;16.57;89.35;102158.75;6098979;19;20020;-73
2023/08/17 04:53:43;;;;;;;8.55;2.80;;;;;;;16.71;88.71;102168.75;6098621;19;20011;-73
2023/08/17 04:55:48;;;;;;;5.68;2.35;;;;;;;16.71;88.66;102163.44;6096796;19;20479;-73
2023/08/17 04:57:55;;;;;;;4.72;2.60;;;;;;;16.74;89.10;102154.47;6100735;19;20011;-74
2023/08/17 05:00:03;;;;;;;4.90;2.38;;;;;;;16.73;88.79;102158.06;6097502;19;20534;-73
2023/08/17 05:02:08;;;;;;;4.20;2.42;;;;;;;16.75;89.04;102162.38;6099525;19;20003;-74
2023/08/17 05:04:13;;;;;;;5.75;2.65;;;;;;;16.74;89.07;102154.47;6098018;19;20010;-76
2023/08/17 05:06:18;;;;;;;5.68;2.45;;;;;;;16.77;89.29;102159.63;6101305;19;20015;-78
2023/08/17 05:08:26;;;;;;;4.40;2.28;;;;;;;16.73;89.53;102158.06;6096066;19;20023;-73
2023/08/17 05:10:31;;;;;;;4.57;2.40;;;;;;;16.76;89.37;102157.91;6098140;19;20042;-73
2023/08/17 05:12:36;;;;;;;4.78;2.60;;;;;;;16.76;89.74;102152.63;6099005;19;20014;-74
2023/08/17 05:14:41;;;;;;;10.60;3.15;;;;;;;16.81;89.78;102145.34;6097844;19;20027;-73
2023/08/17 05:16:50;;;;;;;3.92;2.30;;;;;;;16.82;89.44;102142.59;6097599;19;20135;-73
2023/08/17 05:18:56;;;;;;;4.38;2.85;;;;;;;16.78;89.91;102148.13;6101817;19;20010;-73
2023/08/17 05:21:01;;;;;;;9.35;3.25;;;;;;;16.78;90.07;102148.13;6098074;19;20011;-73
2023/08/17 05:23:06;;;;;;;5.88;2.30;;;;;;;16.80;89.86;102154.25;6094967;19;20018;-73
2023/08/17 05:25:11;;;;;;;6.70;2.78;;;;;;;16.80;89.86;102146.28;6098256;19;20011;-73
2023/08/17 05:27:17;;;;;;;3.42;2.33;;;;;;;16.80;89.97;102148.94;6102655;19;20034;-75
2023/08/17 05:29:20;;;;;;;6.55;2.40;;;;;;;16.75;90.05;102148.25;6100821;19;20019;-73
2023/08/17 05:31:25;;;;;;;5.25;2.28;;;;;;;16.79;90.26;102152.50;6099279;19;20010;-74
2023/08/17 05:33:33;;;;;;;4.22;2.10;;;;;;;16.76;90.37;102153.47;6084824;19;20574;-74
2023/08/17 05:35:42;;;;;;;5.05;2.45;;;;;;;16.86;89.98;102159.25;6095009;19;20017;-73
2023/08/17 05:37:47;;;;;;;4.90;2.25;;;;;;;16.79;90.27;102163.13;6099575;19;20010;-74
2023/08/17 05:39:55;;;;;;;7.88;2.38;;;;;;;16.79;90.30;102155.16;6098473;19;20020;-72
2023/08/17 05:42:01;;;;;;;5.90;2.40;;;;;;;16.80;90.50;102162.22;6100022;19;20471;-73
2023/08/17 05:44:07;;;;;;;4.75;2.17;;;;;;;16.83;90.36;102149.63;6100593;19;20007;-74
2023/08/17 05:46:12;;;;;;;5.20;2.38;;;;;;;16.86;90.47;102159.25;6102643;19;20010;-73
2023/08/17 05:48:17;;;;;;;4.35;2.30;;;;;;;16.90;89.85;102160.81;6095190;19;20070;-74
2023/08/17 05:50:25;;;;;;;6.88;2.50;;;;;;;16.97;89.67;102167.59;6096949;19;20006;-74
2023/08/17 05:52:30;;;;;;;6.50;2.92;;;;;;;17.04;89.73;102165.53;6088047;19;20002;-74
2023/08/17 05:54:35;;;;;;;5.57;2.40;;;;;;;17.07;89.44;102165.38;6098373;19;20594;-73
2023/08/17 05:56:44;;;;;;;5.75;2.30;;;;;;;17.08;88.63;102170.59;6098841;19;21683;-73
2023/08/17 05:58:49;;;;;;;4.97;2.72;;;;;;;17.06;88.66;102167.19;6101555;19;20034;-73
2023/08/17 06:00:55;;;;;;;3.78;2.22;;;;;;;17.09;88.91;102175.00;6102362;19;20014;-74
2023/08/17 06:03:01;;;;;;;5.53;2.03;;;;;;;17.14;88.56;102172.13;6097053;19;20534;-75
2023/08/17 06:05:04;;;;;;;4.30;2.22;;;;;;;17.20;88.50;102176.28;6099208;19;20006;-73
2023/08/17 06:07:12;;;;;;;5.63;2.50;;;;;;;17.20;88.25;102177.16;6097446;19;20105;-73
2023/08/17 06:09:17;;;;;;;6.22;2.28;;;;;;;17.18;88.31;102173.69;6097907;19;20015;-72
2023/08/17 06:11:25;;;;;;;5.50;2.42;;;;;;;17.19;87.98;102177.19;6092168;19;20019;-75
2023/08/17 06:13:30;;;;;;;5.78;2.22;;;;;;;17.21;87.86;102172.69;6099319;19;20014;-72
2023/08/17 06:15:35;;;;;;;3.30;2.30;;;;;;;17.27;87.78;102175.03;6100412;19;20022;-72
2023/08/17 06:17:40;;;;;;;4.47;2.30;;;;;;;17.28;88.12;102171.47;6095303;19;20002;-72
2023/08/17 06:19:46;;;;;;;4.50;2.63;;;;;;;17.28;87.84;102172.31;6102912;19;20358;-73
2023/08/17 06:21:51;;;;;;;7.55;2.75;;;;;;;17.35;87.69;102172.88;6105591;19;20392;-73
2023/08/17 06:24:07;;;;;;;4.57;2.35;;;;;;;17.38;87.94;102177.19;6102379;19;20017;-72
2023/08/17 06:26:17;;;;;;;7.40;2.70;;;;;;;17.49;87.09;102173.09;6105130;19;20511;-76
2023/08/17 06:28:25;;;;;;;4.80;2.30;;;;;;;17.53;87.00;102176.44;6107308;19;20015;-77
2023/08/17 06:30:30;;;;;;;5.82;2.72;;;;;;;17.58;87.20;102177.09;6096905;19;20010;-72
2023/08/17 06:32:35;;;;;;;9.25;2.97;;;;;;;17.62;86.94;102168.06;6104764;19;20006;-74
2023/08/17 06:34:46;;;;;;;6.90;2.72;;;;;;;17.62;86.65;102176.03;6105317;19;20010;-74
2023/08/17 06:37:00;;;;;;;5.93;2.40;;;;;;;17.74;86.55;102182.53;6101840;19;20011;-76
2023/08/17 06:39:11;;;;;;;4.70;2.95;;;;;;;17.72;86.14;102173.75;6081579;19;20384;-75
2023/08/17 06:41:26;;;;;;;3.88;2.20;;;;;;;17.83;86.24;102171.47;6103235;19;20280;-76
2023/08/17 06:43:31;;;;;;;3.53;2.38;;;;;;;17.84;86.05;102183.81;6106087;19;21404;-74
2023/08/17 06:45:37;;;;;;;4.82;2.40;;;;;;;17.86;85.71;102181.97;6104136;19;20011;-74
2023/08/17 06:47:42;;;;;;;6.18;3.33;;;;;;;17.97;85.04;102182.28;6103925;19;20566;-74
2023/08/17 06:49:47;;;;;;;4.82;2.60;;;;;;;18.08;85.08;102179.06;6096249;19;20014;-74
2023/08/17 06:51:52;;;;;;;7.00;2.67;;;;;;;18.16;84.79;102182.19;6102787;19;20043;-74
2023/08/17 06:53:58;;;;;;;4.38;2.40;;;;;;;18.30;84.40;102178.84;6098844;19;20499;-75
2023/08/17 06:56:05;;;;;;;5.07;2.70;;;;;;;18.36;83.77;102170.53;6095534;19;20007;-76
2023/08/17 06:58:11;;;;;;;4.57;2.20;;;;;;;18.38;83.91;102171.31;6094161;19;20017;-76
2023/08/17 07:00:29;;;;;;;7.03;2.50;;;;;;;18.43;83.51;102171.94;6096691;19;20319;-77
2023/08/17 07:02:34;;;;;;;6.72;3.05;;;;;;;18.45;83.46;102173.66;6094610;19;20289;-77
2023/08/17 07:04:54;;;;;;;4.32;2.38;;;;;;;18.44;82.97;102167.47;6103087;19;20010;-78
2023/08/17 07:06:59;;;;;;;8.07;2.85;;;;;;;18.64;82.88;102169.06;6105420;19;20002;-78
2023/08/17 07:09:05;;;;;;;5.13;2.63;;;;;;;18.98;81.55;102164.63;6103067;19;20513;-77
2023/08/17 07:11:15;;;;;;;6.85;3.45;;;;;;;19.50;79.62;102161.72;6101837;19;20090;-72
2023/08/17 07:13:20;;;;;;;5.55;2.55;;;;;;;19.50;79.33;102162.56;6103551;19;20063;-72
2023/08/17 07:15:26;;;;;;;4.35;2.28;;;;;;;19.83;78.50;102163.44;6103186;19;20011;-72
2023/08/17 07:17:31;;;;;;;4.75;2.80;;;;;;;19.80;77.21;102172.47;6094944;19;20038;-72
2023/08/17 07:19:36;;;;;;;5.05;2.40;;;;;;;20.05;76.78;102174.53;6103138;19;20025;-74
2023/08/17 07:22:01;;;;;;;4.05;2.38;;;;;;;20.20;76.15;102166.59;6095724;19;20006;-76
2023/08/17 07:24:15;;;;;;;6.50;2.63;;;;;;;19.94;76.36;102177.84;6096783;19;20023;-76
2023/08/17 07:26:23;;;;;;;7.00;2.63;;;;;;;19.60;78.09;102181.56;6103165;19;20050;-73
2023/08/17 07:28:28;;;;;;;7.38;2.80;;;;;;;19.57;78.05;102184.41;6098750;19;20022;-77
2023/08/17 07:30:36;;;;;;;5.43;2.65;;;;;;;20.04;77.22;102188.00;6096469;19;20010;-77
2023/08/17 07:32:41;;;;;;;6.95;2.85;;;;;;;20.20;76.07;102183.44;6098338;19;20064;-76
2023/08/17 07:34:46;;;;;;;5.75;2.70;;;;;;;20.60;75.18;102181.06;6103499;19;20002;-77
2023/08/17 07:36:51;;;;;;;3.90;2.22;;;;;;;20.91;73.73;102176.50;6099707;19;20018;-75
2023/08/17 07:38:59;;;;;;;4.82;2.53;;;;;;;20.96;72.98;102183.25;6105232;19;20018;-76
2023/08/17 07:41:07;;;;;;;5.72;2.53;;;;;;;20.95;72.46;102186.00;6097388;19;20074;-77
2023/08/17 07:43:15;;;;;;;4.20;2.17;;;;;;;20.77;73.10;102182.69;6093452;19;20587;-77
2023/08/17 07:45:20;;;;;;;6.07;2.33;;;;;;;21.00;72.87;102178.56;6103197;19;20003;-77
2023/08/17 07:47:25;;;;;;;5.57;2.20;;;;;;;20.91;71.96;102169.31;6102245;19;20018;-76
2023/08/17 07:49:31;;;;;;;7.80;2.42;;;;;;;20.76;71.76;102167.63;6103815;19;20072;-76
2023/08/17 07:51:41;;;;;;;3.80;2.00;;;;;;;20.31;73.00;102172.13;6102756;19;20015;-78
2023/08/17 07:53:46;;;;;;;4.85;2.67;;;;;;;20.17;73.44;102171.16;6097866;19;20011;-77
2023/08/17 07:55:51;;;;;;;4.85;2.40;;;;;;;20.28;73.71;102169.66;6104848;19;19995;-76
2023/08/17 07:57:59;;;;;;;4.10;2.08;;;;;;;20.46;73.29;102165.84;6102541;19;20010;-76
2023/08/17 08:00:09;;;;;;;6.07;2.40;;;;;;;20.33;73.88;102180.91;6101978;19;20002;-77
2023/08/17 08:02:14;;;;;;;6.40;2.08;;;;;;;20.10;74.38;102158.25;6099732;19;20468;-76
2023/08/17 08:04:20;;;;;;;6.68;2.40;;;;;;;19.98;75.63;102167.84;6095694;19;20397;-74
2023/08/17 08:06:22;;;;;;;5.97;2.25;;;;;;;20.06;75.29;102175.38;6097192;19;20439;-74
2023/08/17 08:08:28;;;;;;;5.03;2.00;;;;;;;20.03;75.20;102181.75;6099687;19;20365;-75
2023/08/17 08:10:36;;;;;;;5.40;2.33;;;;;;;19.89;75.45;102173.72;6099630;19;20002;-74
2023/08/17 08:12:41;;;;;;;4.72;2.38;;;;;;;19.94;74.74;102169.84;6105309;19;20059;-74
2023/08/17 08:14:46;;;;;;;6.00;2.53;;;;;;;20.71;72.37;102175.06;6098190;19;20007;-74
2023/08/17 08:16:54;;;;;;;3.80;2.05;;;;;;;20.70;71.53;102165.34;6095714;19;20078;-73
2023/08/17 08:19:00;;;;;;;5.15;2.50;;;;;;;20.48;72.34;102163.94;6103730;19;20006;-73
2023/08/17 08:21:05;;;;;;;6.03;2.13;;;;;;;20.75;72.10;102172.09;6101786;19;20054;-73
2023/08/17 08:23:12;;;;;;;4.03;2.10;;;;;;;21.30;69.90;102159.72;6100762;19;20023;-73
2023/08/17 08:25:18;;;;;;;4.75;2.45;;;;;;;20.93;71.02;102156.75;6099484;19;20038;-72
2023/08/17 08:27:24;;;;;;;4.80;2.42;;;;;;;21.40;69.67;102162.66;6099606;19;20007;-72
2023/08/17 08:29:32;;;;;;;3.72;2.13;;;;;;;21.64;68.74;102160.19;6099673;19;20526;-73
2023/08/17 08:31:37;;;;;;;5.70;2.35;;;;;;;21.13;69.57;102152.78;6098261;19;20039;-72
2023/08/17 08:33:46;;;;;;;3.90;2.45;;;;;;;20.87;70.63;102164.25;6098123;19;20407;-72
2023/08/17 08:35:48;;;;;;;2.95;2.03;;;;;;;21.38;69.49;102146.75;6097665;19;20361;-72
2023/08/17 08:37:55;;;;;;;5.75;2.33;;;;;;;21.37;69.16;102155.66;6094192;19;20576;-72
2023/08/17 08:40:00;;;;;;;3.90;2.35;;;;;;;21.45;68.36;102144.50;6099787;19;20728;-72
2023/08/17 08:42:06;;;;;;;4.65;2.55;;;;;;;21.66;68.39;102148.44;6097672;19;20062;-72
2023/08/17 08:44:12;;;;;;;4.53;2.38;;;;;;;21.90;67.99;102161.13;6098530;19;20010;-72
2023/08/17 08:46:21;;;;;;;4.60;2.20;;;;;;;22.09;67.22;102150.03;6099298;19;20010;-72
2023/08/17 08:48:31;;;;;;;8.55;2.33;;;;;;;21.80;67.65;102146.66;6098355;19;20034;-77
2023/08/17 08:50:43;;;;;;;5.35;2.40;;;;;;;21.91;67.98;102147.66;6099472;19;20011;-77
2023/08/17 08:53:00;;;;;;;5.70;2.22;;;;;;;21.72;68.62;102141.81;6093965;19;20005;-76
2023/08/17 08:55:13;;;;;;;3.40;1.92;;;;;;;22.06;67.72;102150.22;6097317;19;20392;-73
2023/08/17 08:57:21;;;;;;;6.47;2.10;;;;;;;22.25;66.45;102147.19;6096272;19;20173;-73
2023/08/17 08:59:31;;;;;;;6.85;2.60;;;;;;;22.37;66.45;102137.44;6095338;19;20027;-73
2023/08/17 09:01:36;;;;;;;8.43;2.45;;;;;;;22.81;65.99;102133.44;6097886;19;20329;-73
2023/08/17 09:03:43;;;;;;;6.40;2.60;;;;;;;23.24;64.51;102136.56;6091778;19;21052;-73
2023/08/17 09:05:55;;;;;;;4.40;2.38;;;;;;;23.11;64.13;102128.56;6094423;19;20006;-73
2023/08/17 09:08:02;;;;;;;4.63;1.77;;;;;;;23.41;63.65;102133.50;6095530;19;20002;-73
2023/08/17 09:10:08;;;;;;;5.72;2.70;;;;;;;23.57;62.93;102133.22;6093895;19;20033;-73
2023/08/17 09:12:13;;;;;;;4.47;2.20;;;;;;;23.73;62.43;102132.09;6097029;19;20495;-73
2023/08/17 09:14:33;;;;;;;5.43;2.00;;;;;;;23.37;61.91;102125.78;6091839;19;20435;-73
2023/08/17 09:16:38;;;;;;;4.97;2.10;;;;;;;23.88;62.02;102126.41;6093169;19;20018;-73
2023/08/17 09:18:44;;;;;;;6.60;2.80;;;;;;;23.67;62.56;102117.25;6094347;19;20006;-72
2023/08/17 09:20:50;;;;;;;6.63;2.55;;;;;;;23.50;62.55;102126.59;6094837;19;20002;-72
2023/08/17 09:22:58;;;;;;;8.98;2.42;;;;;;;23.71;62.18;102123.25;6088270;19;20082;-72
2023/08/17 09:25:03;;;;;;;4.22;2.67;;;;;;;24.10;60.96;102124.75;6094829;19;21343;-74
2023/08/17 09:27:14;;;;;;;5.53;2.60;;;;;;;23.71;61.59;102121.44;6096513;19;20011;-73
2023/08/17 09:29:20;;;;;;;2.65;1.95;;;;;;;23.48;61.81;102127.66;6096584;19;20114;-72
2023/08/17 09:31:27;;;;;;;5.65;2.40;;;;;;;23.27;63.24;102119.38;6097767;19;20014;-72
2023/08/17 09:33:34;;;;;;;5.00;2.03;;;;;;;23.30;61.64;102124.53;6094156;19;20456;-72
2023/08/17 09:35:39;;;;;;;5.82;2.38;;;;;;;23.10;62.58;102115.28;6097855;19;20484;-72
2023/08/17 09:37:44;;;;;;;5.93;2.45;;;;;;;23.32;62.78;102118.06;6097645;19;20070;-72
2023/08/17 09:39:53;;;;;;;5.30;2.42;;;;;;;23.73;60.67;102110.63;6100089;19;20081;-72
2023/08/17 09:41:57;;;;;;;6.68;2.72;;;;;;;23.00;62.31;102112.41;6097882;19;20053;-74
2023/08/17 09:44:03;;;;;;;6.32;2.35;;;;;;;22.90;63.76;102111.34;6098836;19;20030;-73
2023/08/17 09:46:08;;;;;;;4.63;2.45;;;;;;;23.04;62.97;102108.53;6097771;19;20003;-74
2023/08/17 09:48:11;;;;;;;5.18;2.40;;;;;;;24.03;61.48;102091.28;6099572;19;20029;-73